sensor_id;sensor_type;location;lat;lon;timestamp;P1;durP1;ratioP1;P2;durP2;ratioP2
23046;SDS011;11691;51.462;6.902;2023-07-28T00:00:11;6.97;;;5.10;;
23046;SDS011;11691;51.462;6.902;2023-07-28T00:02:37;8.52;;;5.32;;
23046;SDS011;11691;51.462;6.902;2023-07-28T00:05:03;7.88;;;5.45;;
23046;SDS011;11691;51.462;6.902;2023-07-28T00:07:29;7.38;;;5.68;;
23046;SDS011;11691;51.462;6.902;2023-07-28T00:09:59;5.88;;;5.28;;
23046;SDS011;11691;51.462;6.902;2023-07-28T00:12:24;6.55;;;5.78;;
23046;SDS011;11691;51.462;6.902;2023-07-28T00:14:50;8.65;;;5.70;;
23046;SDS011;11691;51.462;6.902;2023-07-28T00:17:16;7.40;;;5.75;;
23046;SDS011;11691;51.462;6.902;2023-07-28T00:19:43;7.00;;;5.85;;
23046;SDS011;11691;51.462;6.902;2023-07-28T00:22:09;8.27;;;6.07;;
23046;SDS011;11691;51.462;6.902;2023-07-28T00:24:35;10.38;;;6.75;;
23046;SDS011;11691;51.462;6.902;2023-07-28T00:27:01;8.05;;;7.25;;
23046;SDS011;11691;51.462;6.902;2023-07-28T00:29:26;8.32;;;6.53;;
23046;SDS011;11691;51.462;6.902;2023-07-28T00:31:52;8.15;;;6.70;;
23046;SDS011;11691;51.462;6.902;2023-07-28T00:34:19;11.20;;;7.45;;
23046;SDS011;11691;51.462;6.902;2023-07-28T00:36:44;8.50;;;6.45;;
23046;SDS011;11691;51.462;6.902;2023-07-28T00:39:11;8.55;;;6.95;;
23046;SDS011;11691;51.462;6.902;2023-07-28T00:41:37;8.70;;;6.45;;
23046;SDS011;11691;51.462;6.902;2023-07-28T00:44:03;7.75;;;6.60;;
23046;SDS011;11691;51.462;6.902;2023-07-28T00:46:28;7.95;;;6.28;;
23046;SDS011;11691;51.462;6.902;2023-07-28T00:48:54;10.15;;;6.78;;
23046;SDS011;11691;51.462;6.902;2023-07-28T00:51:20;13.18;;;6.30;;
23046;SDS011;11691;51.462;6.902;2023-07-28T00:53:46;6.93;;;6.22;;
23046;SDS011;11691;51.462;6.902;2023-07-28T00:56:12;10.15;;;7.03;;
23046;SDS011;11691;51.462;6.902;2023-07-28T00:58:40;10.02;;;6.85;;
23046;SDS011;11691;51.462;6.902;2023-07-28T01:01:06;10.25;;;7.10;;
23046;SDS011;11691;51.462;6.902;2023-07-28T01:03:32;13.32;;;7.70;;
23046;SDS011;11691;51.462;6.902;2023-07-28T01:08:56;9.15;;;7.28;;
23046;SDS011;11691;51.462;6.902;2023-07-28T01:11:23;12.25;;;8.45;;
23046;SDS011;11691;51.462;6.902;2023-07-28T01:13:49;9.05;;;8.07;;
23046;SDS011;11691;51.462;6.902;2023-07-28T01:16:15;11.68;;;9.63;;
23046;SDS011;11691;51.462;6.902;2023-07-28T01:18:41;12.07;;;9.95;;
23046;SDS011;11691;51.462;6.902;2023-07-28T01:21:08;14.77;;;11.65;;
23046;SDS011;11691;51.462;6.902;2023-07-28T01:26:44;18.50;;;11.32;;
23046;SDS011;11691;51.462;6.902;2023-07-28T01:29:10;15.70;;;11.35;;
23046;SDS011;11691;51.462;6.902;2023-07-28T01:31:37;16.40;;;10.48;;
23046;SDS011;11691;51.462;6.902;2023-07-28T01:34:05;15.10;;;10.43;;
23046;SDS011;11691;51.462;6.902;2023-07-28T01:36:31;12.65;;;10.43;;
23046;SDS011;11691;51.462;6.902;2023-07-28T01:38:57;19.55;;;12.90;;
23046;SDS011;11691;51.462;6.902;2023-07-28T01:41:23;18.55;;;12.73;;
23046;SDS011;11691;51.462;6.902;2023-07-28T01:43:49;16.70;;;13.38;;
23046;SDS011;11691;51.462;6.902;2023-07-28T01:46:15;19.83;;;14.02;;
23046;SDS011;11691;51.462;6.902;2023-07-28T01:48:41;17.38;;;13.05;;
23046;SDS011;11691;51.462;6.902;2023-07-28T01:51:07;17.88;;;13.23;;
23046;SDS011;11691;51.462;6.902;2023-07-28T01:53:33;16.77;;;12.80;;
23046;SDS011;11691;51.462;6.902;2023-07-28T01:55:59;18.02;;;13.30;;
23046;SDS011;11691;51.462;6.902;2023-07-28T01:58:25;17.88;;;13.43;;
23046;SDS011;11691;51.462;6.902;2023-07-28T02:00:52;16.65;;;12.80;;
23046;SDS011;11691;51.462;6.902;2023-07-28T02:03:18;20.02;;;13.32;;
23046;SDS011;11691;51.462;6.902;2023-07-28T02:05:44;18.63;;;13.40;;
23046;SDS011;11691;51.462;6.902;2023-07-28T02:08:10;16.40;;;12.38;;
23046;SDS011;11691;51.462;6.902;2023-07-28T02:10:36;16.25;;;12.98;;
23046;SDS011;11691;51.462;6.902;2023-07-28T02:13:02;14.52;;;11.25;;
23046;SDS011;11691;51.462;6.902;2023-07-28T02:15:28;15.00;;;11.82;;
23046;SDS011;11691;51.462;6.902;2023-07-28T02:17:53;17.00;;;11.95;;
23046;SDS011;11691;51.462;6.902;2023-07-28T02:20:19;15.10;;;11.10;;
23046;SDS011;11691;51.462;6.902;2023-07-28T02:22:45;16.38;;;12.10;;
23046;SDS011;11691;51.462;6.902;2023-07-28T02:25:12;13.48;;;11.07;;
23046;SDS011;11691;51.462;6.902;2023-07-28T02:27:38;15.68;;;11.98;;
23046;SDS011;11691;51.462;6.902;2023-07-28T02:30:04;15.73;;;10.45;;
23046;SDS011;11691;51.462;6.902;2023-07-28T02:32:31;14.05;;;11.45;;
23046;SDS011;11691;51.462;6.902;2023-07-28T02:34:57;13.57;;;10.55;;
23046;SDS011;11691;51.462;6.902;2023-07-28T02:37:23;13.02;;;10.32;;
23046;SDS011;11691;51.462;6.902;2023-07-28T02:39:49;12.20;;;10.23;;
23046;SDS011;11691;51.462;6.902;2023-07-28T02:42:15;12.73;;;10.15;;
23046;SDS011;11691;51.462;6.902;2023-07-28T02:44:41;11.80;;;10.00;;
23046;SDS011;11691;51.462;6.902;2023-07-28T02:47:08;12.07;;;9.98;;
23046;SDS011;11691;51.462;6.902;2023-07-28T02:49:34;13.85;;;10.18;;
23046;SDS011;11691;51.462;6.902;2023-07-28T02:52:00;17.25;;;11.23;;
23046;SDS011;11691;51.462;6.902;2023-07-28T02:54:28;12.88;;;9.77;;
23046;SDS011;11691;51.462;6.902;2023-07-28T02:56:54;10.98;;;8.95;;
23046;SDS011;11691;51.462;6.902;2023-07-28T02:59:21;12.88;;;8.10;;
23046;SDS011;11691;51.462;6.902;2023-07-28T03:01:48;13.20;;;8.55;;
23046;SDS011;11691;51.462;6.902;2023-07-28T03:04:16;12.23;;;8.07;;
23046;SDS011;11691;51.462;6.902;2023-07-28T03:06:43;9.93;;;7.68;;
23046;SDS011;11691;51.462;6.902;2023-07-28T03:09:09;8.85;;;7.00;;
23046;SDS011;11691;51.462;6.902;2023-07-28T03:11:36;10.45;;;7.40;;
23046;SDS011;11691;51.462;6.902;2023-07-28T03:14:02;11.43;;;7.00;;
23046;SDS011;11691;51.462;6.902;2023-07-28T03:16:28;8.77;;;7.00;;
23046;SDS011;11691;51.462;6.902;2023-07-28T03:18:54;10.05;;;6.78;;
23046;SDS011;11691;51.462;6.902;2023-07-28T03:21:20;10.73;;;6.43;;
23046;SDS011;11691;51.462;6.902;2023-07-28T03:23:46;9.27;;;6.70;;
23046;SDS011;11691;51.462;6.902;2023-07-28T03:26:12;7.20;;;5.50;;
23046;SDS011;11691;51.462;6.902;2023-07-28T03:28:38;9.05;;;6.60;;
23046;SDS011;11691;51.462;6.902;2023-07-28T03:31:04;7.55;;;5.93;;
23046;SDS011;11691;51.462;6.902;2023-07-28T03:33:30;7.75;;;6.07;;
23046;SDS011;11691;51.462;6.902;2023-07-28T03:35:56;9.65;;;5.75;;
23046;SDS011;11691;51.462;6.902;2023-07-28T03:38:22;8.30;;;5.55;;
23046;SDS011;11691;51.462;6.902;2023-07-28T03:40:49;6.85;;;5.20;;
23046;SDS011;11691;51.462;6.902;2023-07-28T03:43:15;8.23;;;5.65;;
23046;SDS011;11691;51.462;6.902;2023-07-28T03:45:41;8.48;;;6.00;;
23046;SDS011;11691;51.462;6.902;2023-07-28T03:48:07;7.93;;;5.55;;
23046;SDS011;11691;51.462;6.902;2023-07-28T03:50:33;6.38;;;5.40;;
23046;SDS011;11691;51.462;6.902;2023-07-28T03:52:59;7.55;;;5.35;;
23046;SDS011;11691;51.462;6.902;2023-07-28T03:55:25;6.45;;;5.47;;
23046;SDS011;11691;51.462;6.902;2023-07-28T03:57:51;8.77;;;5.85;;
23046;SDS011;11691;51.462;6.902;2023-07-28T04:00:17;8.20;;;5.88;;
23046;SDS011;11691;51.462;6.902;2023-07-28T04:02:43;5.88;;;5.15;;
23046;SDS011;11691;51.462;6.902;2023-07-28T04:05:09;6.60;;;5.43;;
23046;SDS011;11691;51.462;6.902;2023-07-28T04:07:35;6.60;;;5.53;;
23046;SDS011;11691;51.462;6.902;2023-07-28T04:10:01;8.82;;;5.95;;
23046;SDS011;11691;51.462;6.902;2023-07-28T04:12:27;7.40;;;5.50;;
23046;SDS011;11691;51.462;6.902;2023-07-28T04:14:53;6.30;;;5.50;;
23046;SDS011;11691;51.462;6.902;2023-07-28T04:17:19;6.00;;;5.15;;
23046;SDS011;11691;51.462;6.902;2023-07-28T04:19:45;6.40;;;5.70;;
23046;SDS011;11691;51.462;6.902;2023-07-28T04:22:11;6.57;;;5.18;;
23046;SDS011;11691;51.462;6.902;2023-07-28T04:24:36;6.75;;;5.20;;
23046;SDS011;11691;51.462;6.902;2023-07-28T04:27:02;6.30;;;5.60;;
23046;SDS011;11691;51.462;6.902;2023-07-28T04:29:28;5.55;;;4.95;;
23046;SDS011;11691;51.462;6.902;2023-07-28T04:31:54;7.13;;;5.35;;
23046;SDS011;11691;51.462;6.902;2023-07-28T04:34:20;5.25;;;4.47;;
23046;SDS011;11691;51.462;6.902;2023-07-28T04:36:46;8.95;;;4.50;;
23046;SDS011;11691;51.462;6.902;2023-07-28T04:39:12;6.90;;;3.88;;
23046;SDS011;11691;51.462;6.902;2023-07-28T04:41:38;5.32;;;4.22;;
23046;SDS011;11691;51.462;6.902;2023-07-28T04:44:04;7.25;;;4.70;;
23046;SDS011;11691;51.462;6.902;2023-07-28T04:46:30;4.68;;;4.10;;
23046;SDS011;11691;51.462;6.902;2023-07-28T04:48:56;5.53;;;4.00;;
23046;SDS011;11691;51.462;6.902;2023-07-28T04:51:22;4.70;;;3.95;;
23046;SDS011;11691;51.462;6.902;2023-07-28T04:53:49;5.13;;;3.45;;
23046;SDS011;11691;51.462;6.902;2023-07-28T04:56:14;5.28;;;3.22;;
23046;SDS011;11691;51.462;6.902;2023-07-28T04:58:40;4.22;;;3.53;;
23046;SDS011;11691;51.462;6.902;2023-07-28T05:01:06;4.75;;;3.47;;
23046;SDS011;11691;51.462;6.902;2023-07-28T05:03:34;4.55;;;3.58;;
23046;SDS011;11691;51.462;6.902;2023-07-28T05:06:00;3.65;;;3.22;;
23046;SDS011;11691;51.462;6.902;2023-07-28T05:08:26;4.60;;;3.60;;
23046;SDS011;11691;51.462;6.902;2023-07-28T05:10:52;5.22;;;3.85;;
23046;SDS011;11691;51.462;6.902;2023-07-28T05:13:18;5.82;;;4.20;;
23046;SDS011;11691;51.462;6.902;2023-07-28T05:15:44;6.30;;;4.15;;
23046;SDS011;11691;51.462;6.902;2023-07-28T05:18:10;5.60;;;3.50;;
23046;SDS011;11691;51.462;6.902;2023-07-28T05:20:36;11.80;;;4.82;;
23046;SDS011;11691;51.462;6.902;2023-07-28T05:23:02;5.75;;;4.43;;
23046;SDS011;11691;51.462;6.902;2023-07-28T05:25:28;5.32;;;4.18;;
23046;SDS011;11691;51.462;6.902;2023-07-28T05:27:54;5.30;;;4.18;;
23046;SDS011;11691;51.462;6.902;2023-07-28T05:30:20;6.00;;;4.45;;
23046;SDS011;11691;51.462;6.902;2023-07-28T05:32:47;5.53;;;4.55;;
23046;SDS011;11691;51.462;6.902;2023-07-28T05:35:12;6.57;;;5.20;;
23046;SDS011;11691;51.462;6.902;2023-07-28T05:37:39;5.60;;;4.75;;
23046;SDS011;11691;51.462;6.902;2023-07-28T05:40:05;7.47;;;5.18;;
23046;SDS011;11691;51.462;6.902;2023-07-28T05:42:32;8.48;;;5.15;;
23046;SDS011;11691;51.462;6.902;2023-07-28T05:44:58;7.53;;;4.93;;
23046;SDS011;11691;51.462;6.902;2023-07-28T05:47:24;7.32;;;5.30;;
23046;SDS011;11691;51.462;6.902;2023-07-28T05:49:51;7.15;;;4.93;;
23046;SDS011;11691;51.462;6.902;2023-07-28T05:52:18;5.78;;;4.95;;
23046;SDS011;11691;51.462;6.902;2023-07-28T05:54:44;6.18;;;4.28;;
23046;SDS011;11691;51.462;6.902;2023-07-28T05:57:10;5.45;;;3.88;;
23046;SDS011;11691;51.462;6.902;2023-07-28T05:59:36;4.93;;;3.53;;
23046;SDS011;11691;51.462;6.902;2023-07-28T06:02:02;4.28;;;3.63;;
23046;SDS011;11691;51.462;6.902;2023-07-28T06:04:28;4.85;;;4.20;;
23046;SDS011;11691;51.462;6.902;2023-07-28T06:06:54;5.78;;;4.28;;
23046;SDS011;11691;51.462;6.902;2023-07-28T06:09:20;6.82;;;4.00;;
23046;SDS011;11691;51.462;6.902;2023-07-28T06:11:46;7.25;;;4.40;;
23046;SDS011;11691;51.462;6.902;2023-07-28T06:14:12;6.57;;;4.25;;
23046;SDS011;11691;51.462;6.902;2023-07-28T06:16:38;7.95;;;4.50;;
23046;SDS011;11691;51.462;6.902;2023-07-28T06:19:04;5.60;;;4.40;;
23046;SDS011;11691;51.462;6.902;2023-07-28T06:21:31;5.35;;;4.40;;
23046;SDS011;11691;51.462;6.902;2023-07-28T06:23:57;5.75;;;3.83;;
23046;SDS011;11691;51.462;6.902;2023-07-28T06:26:23;6.53;;;3.72;;
23046;SDS011;11691;51.462;6.902;2023-07-28T06:28:49;5.28;;;4.05;;
23046;SDS011;11691;51.462;6.902;2023-07-28T06:31:15;4.47;;;3.55;;
23046;SDS011;11691;51.462;6.902;2023-07-28T06:33:41;5.03;;;3.42;;
23046;SDS011;11691;51.462;6.902;2023-07-28T06:36:07;5.63;;;4.10;;
23046;SDS011;11691;51.462;6.902;2023-07-28T06:38:33;5.43;;;3.85;;
23046;SDS011;11691;51.462;6.902;2023-07-28T06:40:59;5.57;;;3.53;;
23046;SDS011;11691;51.462;6.902;2023-07-28T06:43:26;6.85;;;3.90;;
23046;SDS011;11691;51.462;6.902;2023-07-28T06:45:52;4.63;;;3.33;;
23046;SDS011;11691;51.462;6.902;2023-07-28T06:48:18;5.68;;;3.35;;
23046;SDS011;11691;51.462;6.902;2023-07-28T06:50:44;4.05;;;3.17;;
23046;SDS011;11691;51.462;6.902;2023-07-28T06:53:10;5.63;;;3.53;;
23046;SDS011;11691;51.462;6.902;2023-07-28T06:55:36;8.18;;;3.70;;
23046;SDS011;11691;51.462;6.902;2023-07-28T06:58:04;5.78;;;3.65;;
23046;SDS011;11691;51.462;6.902;2023-07-28T07:00:30;7.40;;;3.65;;
23046;SDS011;11691;51.462;6.902;2023-07-28T07:02:56;7.15;;;3.60;;
23046;SDS011;11691;51.462;6.902;2023-07-28T07:05:22;5.88;;;3.72;;
23046;SDS011;11691;51.462;6.902;2023-07-28T07:07:49;6.85;;;4.30;;
23046;SDS011;11691;51.462;6.902;2023-07-28T07:10:15;6.90;;;4.30;;
23046;SDS011;11691;51.462;6.902;2023-07-28T07:12:41;7.38;;;4.07;;
23046;SDS011;11691;51.462;6.902;2023-07-28T07:15:07;7.30;;;4.60;;
23046;SDS011;11691;51.462;6.902;2023-07-28T07:17:33;5.88;;;3.95;;
23046;SDS011;11691;51.462;6.902;2023-07-28T07:19:59;9.98;;;5.35;;
23046;SDS011;11691;51.462;6.902;2023-07-28T07:22:25;7.30;;;4.72;;
23046;SDS011;11691;51.462;6.902;2023-07-28T07:24:53;8.52;;;5.50;;
23046;SDS011;11691;51.462;6.902;2023-07-28T07:27:19;7.78;;;5.07;;
23046;SDS011;11691;51.462;6.902;2023-07-28T07:29:45;8.38;;;5.22;;
23046;SDS011;11691;51.462;6.902;2023-07-28T07:32:11;7.60;;;4.75;;
23046;SDS011;11691;51.462;6.902;2023-07-28T07:34:37;8.10;;;5.13;;
23046;SDS011;11691;51.462;6.902;2023-07-28T07:37:03;6.30;;;4.40;;
23046;SDS011;11691;51.462;6.902;2023-07-28T07:39:29;7.70;;;4.38;;
23046;SDS011;11691;51.462;6.902;2023-07-28T07:41:56;6.97;;;4.45;;
23046;SDS011;11691;51.462;6.902;2023-07-28T07:44:23;6.78;;;4.15;;
23046;SDS011;11691;51.462;6.902;2023-07-28T07:46:49;8.75;;;4.72;;
23046;SDS011;11691;51.462;6.902;2023-07-28T07:49:15;5.95;;;4.18;;
23046;SDS011;11691;51.462;6.902;2023-07-28T07:51:41;6.20;;;4.60;;
23046;SDS011;11691;51.462;6.902;2023-07-28T07:54:07;7.60;;;4.25;;
23046;SDS011;11691;51.462;6.902;2023-07-28T07:56:33;7.75;;;4.65;;
23046;SDS011;11691;51.462;6.902;2023-07-28T07:58:59;6.85;;;4.45;;
23046;SDS011;11691;51.462;6.902;2023-07-28T08:01:25;8.10;;;4.85;;
23046;SDS011;11691;51.462;6.902;2023-07-28T08:03:51;6.68;;;4.05;;
23046;SDS011;11691;51.462;6.902;2023-07-28T08:06:17;5.85;;;4.18;;
23046;SDS011;11691;51.462;6.902;2023-07-28T08:08:43;6.20;;;4.40;;
23046;SDS011;11691;51.462;6.902;2023-07-28T08:11:10;5.35;;;4.45;;
23046;SDS011;11691;51.462;6.902;2023-07-28T08:13:37;6.22;;;4.00;;
23046;SDS011;11691;51.462;6.902;2023-07-28T08:16:03;5.43;;;4.25;;
23046;SDS011;11691;51.462;6.902;2023-07-28T08:18:29;5.28;;;4.45;;
23046;SDS011;11691;51.462;6.902;2023-07-28T08:20:55;6.22;;;4.43;;
23046;SDS011;11691;51.462;6.902;2023-07-28T08:23:21;5.60;;;4.18;;
23046;SDS011;11691;51.462;6.902;2023-07-28T08:25:47;8.23;;;5.68;;
23046;SDS011;11691;51.462;6.902;2023-07-28T08:28:13;7.93;;;5.82;;
23046;SDS011;11691;51.462;6.902;2023-07-28T08:30:39;7.65;;;5.53;;
23046;SDS011;11691;51.462;6.902;2023-07-28T08:33:05;5.78;;;5.28;;
23046;SDS011;11691;51.462;6.902;2023-07-28T08:35:31;6.85;;;5.57;;
23046;SDS011;11691;51.462;6.902;2023-07-28T08:37:58;6.53;;;5.03;;
23046;SDS011;11691;51.462;6.902;2023-07-28T08:40:23;4.65;;;4.22;;
23046;SDS011;11691;51.462;6.902;2023-07-28T08:42:51;6.00;;;4.60;;
23046;SDS011;11691;51.462;6.902;2023-07-28T08:45:17;4.05;;;3.65;;
23046;SDS011;11691;51.462;6.902;2023-07-28T08:47:44;4.13;;;3.60;;
23046;SDS011;11691;51.462;6.902;2023-07-28T08:50:10;4.78;;;3.70;;
23046;SDS011;11691;51.462;6.902;2023-07-28T08:52:36;3.63;;;3.33;;
23046;SDS011;11691;51.462;6.902;2023-07-28T08:55:02;4.60;;;3.90;;
23046;SDS011;11691;51.462;6.902;2023-07-28T08:57:29;5.22;;;4.22;;
23046;SDS011;11691;51.462;6.902;2023-07-28T08:59:55;6.05;;;4.40;;
23046;SDS011;11691;51.462;6.902;2023-07-28T09:02:21;6.03;;;4.35;;
23046;SDS011;11691;51.462;6.902;2023-07-28T09:04:47;5.25;;;4.45;;
23046;SDS011;11691;51.462;6.902;2023-07-28T09:07:14;4.68;;;3.72;;
23046;SDS011;11691;51.462;6.902;2023-07-28T09:09:40;8.13;;;4.13;;
23046;SDS011;11691;51.462;6.902;2023-07-28T09:12:06;6.63;;;5.80;;
23046;SDS011;11691;51.462;6.902;2023-07-28T09:14:34;7.00;;;6.30;;
23046;SDS011;11691;51.462;6.902;2023-07-28T09:17:11;7.70;;;6.43;;
23046;SDS011;11691;51.462;6.902;2023-07-28T09:22:17;6.60;;;5.35;;
23046;SDS011;11691;51.462;6.902;2023-07-28T09:24:45;6.05;;;4.65;;
23046;SDS011;11691;51.462;6.902;2023-07-28T09:27:22;6.30;;;4.82;;
23046;SDS011;11691;51.462;6.902;2023-07-28T09:29:50;5.18;;;4.40;;
23046;SDS011;11691;51.462;6.902;2023-07-28T09:32:16;5.25;;;4.43;;
23046;SDS011;11691;51.462;6.902;2023-07-28T09:35:04;5.90;;;4.07;;
23046;SDS011;11691;51.462;6.902;2023-07-28T09:37:38;4.50;;;4.10;;
23046;SDS011;11691;51.462;6.902;2023-07-28T09:40:08;4.80;;;3.80;;
23046;SDS011;11691;51.462;6.902;2023-07-28T09:42:38;5.45;;;4.07;;
23046;SDS011;11691;51.462;6.902;2023-07-28T09:45:05;6.97;;;4.28;;
23046;SDS011;11691;51.462;6.902;2023-07-28T09:47:33;4.88;;;3.65;;
23046;SDS011;11691;51.462;6.902;2023-07-28T09:50:01;5.15;;;3.50;;
23046;SDS011;11691;51.462;6.902;2023-07-28T09:52:28;3.78;;;3.38;;
23046;SDS011;11691;51.462;6.902;2023-07-28T09:54:56;4.68;;;3.25;;
23046;SDS011;11691;51.462;6.902;2023-07-28T09:57:24;4.88;;;3.35;;
23046;SDS011;11691;51.462;6.902;2023-07-28T09:59:51;3.53;;;2.60;;
23046;SDS011;11691;51.462;6.902;2023-07-28T10:02:20;4.10;;;2.50;;
23046;SDS011;11691;51.462;6.902;2023-07-28T10:04:46;2.75;;;2.35;;
23046;SDS011;11691;51.462;6.902;2023-07-28T10:07:12;5.22;;;2.80;;
23046;SDS011;11691;51.462;6.902;2023-07-28T10:09:38;3.88;;;2.70;;
23046;SDS011;11691;51.462;6.902;2023-07-28T10:12:05;2.78;;;2.45;;
23046;SDS011;11691;51.462;6.902;2023-07-28T10:14:34;2.53;;;2.20;;
23046;SDS011;11691;51.462;6.902;2023-07-28T10:17:03;2.60;;;2.22;;
23046;SDS011;11691;51.462;6.902;2023-07-28T10:19:36;2.28;;;2.00;;
23046;SDS011;11691;51.462;6.902;2023-07-28T10:22:08;3.15;;;2.65;;
23046;SDS011;11691;51.462;6.902;2023-07-28T10:24:50;3.42;;;2.42;;
23046;SDS011;11691;51.462;6.902;2023-07-28T10:27:28;4.03;;;2.70;;
23046;SDS011;11691;51.462;6.902;2023-07-28T10:29:56;3.53;;;2.60;;
23046;SDS011;11691;51.462;6.902;2023-07-28T10:32:29;3.88;;;2.88;;
23046;SDS011;11691;51.462;6.902;2023-07-28T10:35:07;4.53;;;2.70;;
23046;SDS011;11691;51.462;6.902;2023-07-28T10:37:34;2.83;;;2.50;;
23046;SDS011;11691;51.462;6.902;2023-07-28T10:42:47;3.08;;;2.53;;
23046;SDS011;11691;51.462;6.902;2023-07-28T10:45:13;3.90;;;2.50;;
23046;SDS011;11691;51.462;6.902;2023-07-28T10:47:40;3.15;;;1.95;;
23046;SDS011;11691;51.462;6.902;2023-07-28T10:50:08;3.97;;;2.20;;
23046;SDS011;11691;51.462;6.902;2023-07-28T10:52:38;3.67;;;1.80;;
23046;SDS011;11691;51.462;6.902;2023-07-28T10:55:04;2.30;;;2.03;;
23046;SDS011;11691;51.462;6.902;2023-07-28T10:57:36;2.80;;;2.13;;
23046;SDS011;11691;51.462;6.902;2023-07-28T11:00:02;3.40;;;2.63;;
23046;SDS011;11691;51.462;6.902;2023-07-28T11:02:30;2.97;;;2.20;;
23046;SDS011;11691;51.462;6.902;2023-07-28T11:04:56;2.30;;;2.10;;
23046;SDS011;11691;51.462;6.902;2023-07-28T11:07:22;2.30;;;2.10;;
23046;SDS011;11691;51.462;6.902;2023-07-28T11:09:48;3.00;;;2.00;;
23046;SDS011;11691;51.462;6.902;2023-07-28T11:12:14;4.35;;;2.10;;
23046;SDS011;11691;51.462;6.902;2023-07-28T11:14:40;3.90;;;1.88;;
23046;SDS011;11691;51.462;6.902;2023-07-28T11:17:06;3.67;;;1.85;;
23046;SDS011;11691;51.462;6.902;2023-07-28T11:19:33;1.80;;;1.40;;
23046;SDS011;11691;51.462;6.902;2023-07-28T11:21:59;2.95;;;1.50;;
23046;SDS011;11691;51.462;6.902;2023-07-28T11:24:25;2.78;;;1.85;;
23046;SDS011;11691;51.462;6.902;2023-07-28T11:26:51;2.08;;;1.88;;
23046;SDS011;11691;51.462;6.902;2023-07-28T11:29:20;2.58;;;2.10;;
23046;SDS011;11691;51.462;6.902;2023-07-28T11:31:47;2.20;;;1.73;;
23046;SDS011;11691;51.462;6.902;2023-07-28T11:34:16;4.00;;;1.88;;
23046;SDS011;11691;51.462;6.902;2023-07-28T11:36:43;2.35;;;2.15;;
23046;SDS011;11691;51.462;6.902;2023-07-28T11:39:09;3.25;;;1.80;;
23046;SDS011;11691;51.462;6.902;2023-07-28T11:41:35;1.83;;;1.60;;
23046;SDS011;11691;51.462;6.902;2023-07-28T11:44:01;3.00;;;1.73;;
23046;SDS011;11691;51.462;6.902;2023-07-28T11:46:34;2.05;;;1.80;;
23046;SDS011;11691;51.462;6.902;2023-07-28T11:49:10;2.50;;;1.90;;
23046;SDS011;11691;51.462;6.902;2023-07-28T11:51:40;2.28;;;2.08;;
23046;SDS011;11691;51.462;6.902;2023-07-28T11:54:10;4.50;;;2.00;;
23046;SDS011;11691;51.462;6.902;2023-07-28T11:56:37;3.38;;;1.73;;
23046;SDS011;11691;51.462;6.902;2023-07-28T11:59:03;3.83;;;2.30;;
23046;SDS011;11691;51.462;6.902;2023-07-28T12:01:29;2.78;;;1.85;;
23046;SDS011;11691;51.462;6.902;2023-07-28T12:03:55;1.77;;;1.55;;
23046;SDS011;11691;51.462;6.902;2023-07-28T12:06:23;1.73;;;1.48;;
23046;SDS011;11691;51.462;6.902;2023-07-28T12:08:49;1.83;;;1.40;;
23046;SDS011;11691;51.462;6.902;2023-07-28T12:11:15;1.40;;;1.30;;
23046;SDS011;11691;51.462;6.902;2023-07-28T12:13:49;1.27;;;0.80;;
23046;SDS011;11691;51.462;6.902;2023-07-28T12:16:57;1.50;;;1.10;;
23046;SDS011;11691;51.462;6.902;2023-07-28T12:19:06;1.20;;;0.90;;
23046;SDS011;11691;51.462;6.902;2023-07-28T12:21:32;0.75;;;0.70;;
23046;SDS011;11691;51.462;6.902;2023-07-28T12:23:57;3.67;;;0.95;;
23046;SDS011;11691;51.462;6.902;2023-07-28T12:26:23;1.75;;;0.50;;
23046;SDS011;11691;51.462;6.902;2023-07-28T12:28:49;1.60;;;0.50;;
23046;SDS011;11691;51.462;6.902;2023-07-28T12:31:16;0.75;;;0.50;;
23046;SDS011;11691;51.462;6.902;2023-07-28T12:33:42;0.90;;;0.55;;
23046;SDS011;11691;51.462;6.902;2023-07-28T12:36:08;0.98;;;0.60;;
23046;SDS011;11691;51.462;6.902;2023-07-28T12:38:34;0.77;;;0.50;;
23046;SDS011;11691;51.462;6.902;2023-07-28T12:41:00;0.52;;;0.50;;
23046;SDS011;11691;51.462;6.902;2023-07-28T12:43:26;0.68;;;0.57;;
23046;SDS011;11691;51.462;6.902;2023-07-28T12:45:54;1.50;;;0.70;;
23046;SDS011;11691;51.462;6.902;2023-07-28T12:48:20;3.88;;;0.90;;
23046;SDS011;11691;51.462;6.902;2023-07-28T12:50:46;0.98;;;0.52;;
23046;SDS011;11691;51.462;6.902;2023-07-28T12:53:12;0.77;;;0.60;;
23046;SDS011;11691;51.462;6.902;2023-07-28T12:55:37;0.80;;;0.70;;
23046;SDS011;11691;51.462;6.902;2023-07-28T12:58:03;0.60;;;0.55;;
23046;SDS011;11691;51.462;6.902;2023-07-28T13:00:29;2.80;;;0.50;;
23046;SDS011;11691;51.462;6.902;2023-07-28T13:02:55;0.93;;;0.45;;
23046;SDS011;11691;51.462;6.902;2023-07-28T13:05:21;2.03;;;0.43;;
23046;SDS011;11691;51.462;6.902;2023-07-28T13:07:47;1.65;;;0.45;;
23046;SDS011;11691;51.462;6.902;2023-07-28T13:10:13;1.73;;;0.50;;
23046;SDS011;11691;51.462;6.902;2023-07-28T13:12:39;1.95;;;0.70;;
23046;SDS011;11691;51.462;6.902;2023-07-28T13:15:05;2.45;;;0.82;;
23046;SDS011;11691;51.462;6.902;2023-07-28T13:17:31;2.05;;;0.75;;
23046;SDS011;11691;51.462;6.902;2023-07-28T13:19:57;1.80;;;0.70;;
23046;SDS011;11691;51.462;6.902;2023-07-28T13:22:23;0.93;;;0.63;;
23046;SDS011;11691;51.462;6.902;2023-07-28T13:24:51;1.15;;;0.70;;
23046;SDS011;11691;51.462;6.902;2023-07-28T13:27:17;1.08;;;0.77;;
23046;SDS011;11691;51.462;6.902;2023-07-28T13:29:43;1.77;;;0.63;;
23046;SDS011;11691;51.462;6.902;2023-07-28T13:32:22;0.73;;;0.50;;
23046;SDS011;11691;51.462;6.902;2023-07-28T13:34:49;0.80;;;0.60;;
23046;SDS011;11691;51.462;6.902;2023-07-28T13:37:15;1.95;;;0.50;;
23046;SDS011;11691;51.462;6.902;2023-07-28T13:39:41;1.50;;;0.50;;
23046;SDS011;11691;51.462;6.902;2023-07-28T13:42:08;0.68;;;0.50;;
23046;SDS011;11691;51.462;6.902;2023-07-28T13:44:34;1.38;;;0.52;;
23046;SDS011;11691;51.462;6.902;2023-07-28T13:47:00;2.60;;;0.50;;
23046;SDS011;11691;51.462;6.902;2023-07-28T13:49:26;0.70;;;0.60;;
23046;SDS011;11691;51.462;6.902;2023-07-28T13:51:52;2.03;;;0.50;;
23046;SDS011;11691;51.462;6.902;2023-07-28T13:54:18;0.93;;;0.60;;
23046;SDS011;11691;51.462;6.902;2023-07-28T13:56:44;1.13;;;0.70;;
23046;SDS011;11691;51.462;6.902;2023-07-28T13:59:10;1.67;;;0.57;;
23046;SDS011;11691;51.462;6.902;2023-07-28T14:01:36;0.70;;;0.60;;
23046;SDS011;11691;51.462;6.902;2023-07-28T14:04:02;2.03;;;0.70;;
23046;SDS011;11691;51.462;6.902;2023-07-28T14:06:28;2.13;;;0.50;;
23046;SDS011;11691;51.462;6.902;2023-07-28T14:08:54;0.70;;;0.52;;
23046;SDS011;11691;51.462;6.902;2023-07-28T14:11:20;0.60;;;0.50;;
23046;SDS011;11691;51.462;6.902;2023-07-28T14:13:46;0.73;;;0.70;;
23046;SDS011;11691;51.462;6.902;2023-07-28T14:16:12;1.05;;;0.80;;
23046;SDS011;11691;51.462;6.902;2023-07-28T14:18:38;0.90;;;0.60;;
23046;SDS011;11691;51.462;6.902;2023-07-28T14:21:05;2.13;;;0.80;;
23046;SDS011;11691;51.462;6.902;2023-07-28T14:23:31;2.08;;;0.80;;
23046;SDS011;11691;51.462;6.902;2023-07-28T14:25:57;0.82;;;0.70;;
23046;SDS011;11691;51.462;6.902;2023-07-28T14:28:23;2.15;;;0.85;;
23046;SDS011;11691;51.462;6.902;2023-07-28T14:30:49;1.25;;;0.90;;
23046;SDS011;11691;51.462;6.902;2023-07-28T14:33:17;1.05;;;0.80;;
23046;SDS011;11691;51.462;6.902;2023-07-28T14:35:43;1.20;;;0.50;;
23046;SDS011;11691;51.462;6.902;2023-07-28T14:38:10;2.17;;;0.65;;
23046;SDS011;11691;51.462;6.902;2023-07-28T14:40:36;1.92;;;0.70;;
23046;SDS011;11691;51.462;6.902;2023-07-28T14:43:04;2.10;;;0.70;;
23046;SDS011;11691;51.462;6.902;2023-07-28T14:45:30;0.75;;;0.70;;
23046;SDS011;11691;51.462;6.902;2023-07-28T14:47:57;1.95;;;0.80;;
23046;SDS011;11691;51.462;6.902;2023-07-28T14:50:23;0.60;;;0.60;;